createdAt,value
2024-05-09T00:00:31.670Z,387.00
2024-05-09T00:01:40.737Z,383.33
2024-05-09T00:02:42.885Z,382.00
2024-05-09T00:03:45.821Z,382.00
2024-05-09T00:04:48.038Z,382.50
2024-05-09T00:05:50.124Z,383.00
2024-05-09T00:06:52.189Z,383.00
2024-05-09T00:07:54.281Z,382.67
2024-05-09T00:08:56.337Z,382.00
2024-05-09T00:09:58.406Z,381.17
2024-05-09T00:11:00.618Z,381.67
2024-05-09T00:12:03.481Z,382.00
2024-05-09T00:13:06.674Z,381.00
2024-05-09T00:14:09.015Z,380.50
2024-05-09T00:15:11.075Z,380.00
2024-05-09T00:16:13.140Z,380.00
2024-05-09T00:17:15.406Z,380.00
2024-05-09T00:18:17.816Z,379.33
2024-05-09T00:19:20.574Z,378.67
2024-05-09T00:20:28.543Z,377.50
2024-05-09T00:21:42.332Z,376.00
2024-05-09T00:22:44.514Z,376.00
2024-05-09T00:23:46.589Z,375.17
2024-05-09T00:24:48.658Z,375.00
2024-05-09T00:25:50.766Z,375.00
2024-05-09T00:26:52.841Z,374.83
2024-05-09T00:27:54.913Z,373.67
2024-05-09T00:28:57.023Z,373.00
2024-05-09T00:29:59.115Z,373.00
2024-05-09T00:31:02.211Z,373.00
2024-05-09T00:32:04.932Z,372.83
2024-05-09T00:33:08.678Z,372.00
2024-05-09T00:34:12.358Z,371.33
2024-05-09T00:35:14.511Z,371.00
2024-05-09T00:36:16.591Z,371.00
2024-05-09T00:37:19.266Z,371.00
2024-05-09T00:38:21.497Z,371.00
2024-05-09T00:39:23.580Z,371.00
2024-05-09T00:40:35.700Z,371.00
2024-05-09T00:41:41.805Z,370.17
2024-05-09T00:42:45.902Z,370.00
2024-05-09T00:43:48.036Z,370.00
2024-05-09T00:44:50.099Z,370.00
2024-05-09T00:45:53.813Z,369.33
2024-05-09T00:46:56.506Z,368.00
2024-05-09T00:48:01.458Z,367.33
2024-05-09T00:49:04.391Z,366.67
2024-05-09T00:50:10.164Z,365.00
2024-05-09T00:51:17.680Z,362.33
2024-05-09T00:52:20.630Z,361.00
2024-05-09T00:53:23.355Z,360.17
2024-05-09T00:54:25.484Z,359.83
2024-05-09T00:55:27.766Z,358.50
2024-05-09T00:56:29.876Z,356.00
2024-05-09T00:57:31.970Z,353.50
2024-05-09T00:58:34.018Z,352.50
2024-05-09T00:59:36.233Z,352.00
2024-05-09T01:00:40.945Z,352.00
2024-05-09T01:01:44.865Z,352.00
2024-05-09T01:02:47.179Z,351.50
2024-05-09T01:03:51.285Z,351.00
2024-05-09T01:04:54.313Z,351.00
2024-05-09T01:05:56.592Z,351.50
2024-05-09T01:06:58.707Z,352.00
2024-05-09T01:08:01.493Z,351.50
2024-05-09T01:09:03.580Z,351.00
2024-05-09T01:10:11.690Z,351.00
2024-05-09T01:11:19.862Z,351.00
2024-05-09T01:12:23.583Z,350.33
2024-05-09T01:13:25.702Z,349.17
2024-05-09T01:14:27.798Z,347.50
2024-05-09T01:15:29.976Z,345.50
2024-05-09T01:16:32.290Z,344.17
2024-05-09T01:17:34.944Z,343.50
2024-05-09T01:18:37.185Z,342.00
2024-05-09T01:19:39.481Z,341.00
2024-05-09T01:20:44.151Z,341.00
2024-05-09T01:21:47.390Z,341.00
2024-05-09T01:22:51.699Z,341.00
2024-05-09T01:23:53.755Z,341.00
2024-05-09T01:24:55.821Z,341.33
2024-05-09T01:25:57.946Z,342.00
2024-05-09T01:27:00.019Z,342.00
2024-05-09T01:28:02.088Z,340.83
2024-05-09T01:29:04.188Z,339.50
2024-05-09T01:30:09.270Z,338.33
2024-05-09T01:31:14.722Z,336.67
2024-05-09T01:32:16.871Z,335.67
2024-05-09T01:33:19.069Z,334.17
2024-05-09T01:34:21.351Z,333.17
2024-05-09T01:35:23.576Z,333.83
2024-05-09T01:36:25.741Z,334.00
2024-05-09T01:37:27.804Z,334.67
2024-05-09T01:38:30.303Z,335.00
2024-05-09T01:39:32.445Z,335.00
2024-05-09T01:40:38.452Z,335.00
2024-05-09T01:41:42.128Z,335.00
2024-05-09T01:42:44.192Z,335.00
2024-05-09T01:43:46.336Z,335.00
2024-05-09T01:44:48.429Z,335.00
2024-05-09T01:45:50.460Z,335.00
2024-05-09T01:46:52.571Z,333.67
2024-05-09T01:47:54.862Z,332.00
2024-05-09T01:48:57.087Z,330.67
2024-05-09T01:49:59.216Z,329.17
2024-05-09T01:51:01.468Z,326.33
2024-05-09T01:52:03.702Z,322.50
2024-05-09T01:53:05.928Z,319.33
2024-05-09T01:54:08.066Z,319.00
2024-05-09T01:55:10.117Z,319.00
2024-05-09T01:56:12.282Z,319.00
2024-05-09T01:57:15.868Z,319.00
2024-05-09T01:58:18.097Z,319.83
2024-05-09T01:59:21.154Z,320.00
2024-05-09T02:00:34.492Z,320.33
2024-05-09T02:01:56.124Z,321.00
2024-05-09T02:02:59.901Z,321.00
2024-05-09T02:04:02.620Z,321.50
2024-05-09T02:05:05.320Z,322.00
2024-05-09T02:06:07.587Z,322.00
2024-05-09T02:07:09.665Z,322.67
2024-05-09T02:08:16.621Z,323.00
2024-05-09T02:09:18.874Z,323.00
2024-05-09T02:10:26.358Z,323.17
2024-05-09T02:11:42.214Z,323.33
2024-05-09T02:12:44.337Z,320.83
2024-05-09T02:13:46.446Z,316.33
2024-05-09T02:14:48.511Z,300.50
2024-05-09T02:15:51.508Z,296.33
2024-05-09T02:16:53.601Z,291.00
2024-05-09T02:17:55.853Z,279.50
2024-05-09T02:18:58.140Z,274.33
2024-05-09T02:20:00.353Z,269.33
2024-05-09T02:21:02.555Z,266.67
2024-05-09T02:22:04.714Z,269.00
2024-05-09T02:23:07.691Z,273.50
2024-05-09T02:24:09.806Z,275.67
2024-05-09T02:25:11.849Z,277.83
2024-05-09T02:26:13.934Z,279.50
2024-05-09T02:27:16.007Z,279.67
2024-05-09T02:28:19.862Z,278.33
2024-05-09T02:29:22.039Z,275.50
2024-05-09T02:30:31.131Z,274.67
2024-05-09T02:31:40.996Z,275.00
2024-05-09T02:32:43.209Z,275.17
2024-05-09T02:33:45.943Z,270.83
2024-05-09T02:34:48.146Z,268.00
2024-05-09T02:35:50.325Z,262.50
2024-05-09T02:36:54.953Z,255.83
2024-05-09T02:37:57.059Z,251.00
2024-05-09T02:38:59.089Z,236.67
2024-05-09T02:40:01.146Z,224.83
2024-05-09T02:41:03.365Z,213.33
2024-05-09T02:42:05.634Z,202.33
2024-05-09T02:43:11.797Z,193.00
2024-05-09T02:44:14.686Z,192.00
2024-05-09T02:45:16.771Z,187.50
2024-05-09T02:46:18.825Z,180.67
2024-05-09T02:47:21.079Z,178.50
2024-05-09T02:48:23.567Z,174.00
2024-05-09T02:49:25.875Z,178.67
2024-05-09T02:50:34.586Z,178.33
2024-05-09T02:51:40.857Z,183.33
2024-05-09T02:52:42.934Z,187.83
2024-05-09T02:53:45.083Z,191.33
2024-05-09T02:54:47.140Z,193.00
2024-05-09T02:55:49.278Z,194.00
2024-05-09T02:56:51.341Z,189.33
2024-05-09T02:57:53.419Z,179.00
2024-05-09T02:58:55.737Z,177.67
2024-05-09T02:59:57.802Z,177.67
2024-05-09T03:01:00.926Z,181.33
2024-05-09T03:02:03.154Z,183.33
2024-05-09T03:03:06.948Z,184.33
2024-05-09T03:04:09.463Z,184.50
2024-05-09T03:05:11.799Z,183.00
2024-05-09T03:06:13.904Z,182.67
2024-05-09T03:07:17.239Z,179.67
2024-05-09T03:08:20.462Z,177.67
2024-05-09T03:09:23.015Z,178.83
2024-05-09T03:10:28.730Z,181.00
2024-05-09T03:11:34.840Z,184.83
2024-05-09T03:12:39.224Z,186.33
2024-05-09T03:13:41.445Z,187.50
2024-05-09T03:14:43.484Z,193.00
2024-05-09T03:15:45.682Z,196.83
2024-05-09T03:16:47.769Z,196.50
2024-05-09T03:17:50.063Z,194.00
2024-05-09T03:18:53.578Z,192.33
2024-05-09T03:19:55.691Z,193.00
2024-05-09T03:20:57.998Z,194.00
2024-05-09T03:22:00.055Z,194.83
2024-05-09T03:23:03.704Z,195.33
2024-05-09T03:24:06.450Z,195.67
2024-05-09T03:25:08.531Z,197.67
2024-05-09T03:26:12.136Z,204.00
2024-05-09T03:27:14.256Z,210.33
2024-05-09T03:28:16.354Z,214.50
2024-05-09T03:29:18.470Z,219.83
2024-05-09T03:30:30.758Z,225.33
2024-05-09T03:31:42.599Z,235.67
2024-05-09T03:32:44.816Z,236.83
2024-05-09T03:33:47.077Z,233.00
2024-05-09T03:34:49.279Z,230.33
2024-05-09T03:35:51.305Z,226.83
2024-05-09T03:36:53.379Z,222.50
2024-05-09T03:37:55.475Z,200.33
2024-05-09T03:38:57.505Z,190.83
2024-05-09T03:40:00.774Z,195.17
2024-05-09T03:41:02.869Z,198.33
2024-05-09T03:42:04.912Z,208.00
2024-05-09T03:43:06.981Z,230.00
2024-05-09T03:44:09.313Z,242.83
2024-05-09T03:45:11.351Z,244.67
2024-05-09T03:46:13.422Z,246.17
2024-05-09T03:47:15.614Z,248.67
2024-05-09T03:48:18.114Z,244.83
2024-05-09T03:49:21.389Z,241.33
2024-05-09T03:50:30.106Z,238.00
2024-05-09T03:51:36.064Z,229.50
2024-05-09T03:52:38.135Z,222.83
2024-05-09T03:53:40.407Z,219.33
2024-05-09T03:54:48.052Z,219.50
2024-05-09T03:55:50.143Z,221.83
2024-05-09T03:56:53.189Z,233.50
2024-05-09T03:57:55.650Z,244.17
2024-05-09T03:58:57.956Z,254.00
2024-05-09T04:00:00.035Z,260.50
2024-05-09T04:01:02.782Z,264.00
2024-05-09T04:02:05.386Z,258.00
2024-05-09T04:03:09.976Z,253.83
2024-05-09T04:04:14.131Z,251.83
2024-05-09T04:05:16.319Z,251.00
2024-05-09T04:06:25.337Z,250.33
2024-05-09T04:07:27.361Z,246.17
2024-05-09T04:08:29.524Z,230.00
2024-05-09T04:09:31.624Z,220.00
2024-05-09T04:10:35.026Z,224.33
2024-05-09T04:11:37.774Z,233.33
2024-05-09T04:12:39.973Z,259.83
2024-05-09T04:13:42.232Z,282.33
2024-05-09T04:14:44.350Z,291.00
2024-05-09T04:15:46.420Z,290.17
2024-05-09T04:16:48.528Z,288.83
2024-05-09T04:17:50.792Z,289.17
2024-05-09T04:18:53.330Z,292.67
2024-05-09T04:19:55.558Z,291.17
2024-05-09T04:20:58.277Z,291.50
2024-05-09T04:22:00.378Z,294.17
2024-05-09T04:23:02.499Z,294.67
2024-05-09T04:24:04.736Z,292.50
2024-05-09T04:25:06.807Z,290.17
2024-05-09T04:26:08.948Z,274.17
2024-05-09T04:27:11.022Z,239.00
2024-05-09T04:28:13.270Z,203.00
2024-05-09T04:29:15.378Z,184.33
2024-05-09T04:30:25.729Z,166.33
2024-05-09T04:31:35.965Z,143.83
2024-05-09T04:32:38.179Z,148.83
2024-05-09T04:33:40.403Z,183.17
2024-05-09T04:34:42.538Z,205.83
2024-05-09T04:35:45.222Z,214.83
2024-05-09T04:36:47.528Z,220.67
2024-05-09T04:37:49.675Z,228.50
2024-05-09T04:38:51.758Z,230.83
2024-05-09T04:39:53.965Z,229.00
2024-05-09T04:40:56.173Z,218.67
2024-05-09T04:41:58.262Z,194.00
2024-05-09T04:43:00.527Z,179.83
2024-05-09T04:44:02.630Z,183.33
2024-05-09T04:45:04.862Z,189.33
2024-05-09T04:46:06.941Z,192.83
2024-05-09T04:47:09.014Z,193.33
2024-05-09T04:48:11.385Z,188.17
2024-05-09T04:49:13.935Z,180.83
2024-05-09T04:50:24.657Z,179.00
2024-05-09T04:51:31.623Z,171.50
2024-05-09T04:52:33.674Z,170.17
2024-05-09T04:53:35.995Z,163.17
2024-05-09T04:54:38.098Z,151.00
2024-05-09T04:55:40.729Z,149.67
2024-05-09T04:56:42.939Z,155.33
2024-05-09T04:57:44.998Z,154.83
2024-05-09T04:58:47.088Z,143.33
2024-05-09T04:59:49.132Z,145.33
2024-05-09T05:00:51.268Z,151.00
2024-05-09T05:01:53.525Z,153.83
2024-05-09T05:02:55.855Z,151.67
2024-05-09T05:03:58.458Z,153.67
2024-05-09T05:05:00.981Z,154.83
2024-05-09T05:06:03.195Z,156.00
2024-05-09T05:07:05.469Z,152.00
2024-05-09T05:08:11.264Z,129.17
2024-05-09T05:09:13.386Z,108.50
2024-05-09T05:10:21.543Z,91.50
2024-05-09T05:11:30.964Z,93.00
2024-05-09T05:12:51.488Z,109.33
2024-05-09T05:13:53.597Z,117.83
2024-05-09T05:14:56.556Z,116.33
2024-05-09T05:15:59.886Z,115.67
2024-05-09T05:17:02.026Z,112.67
2024-05-09T05:18:05.516Z,110.67
2024-05-09T05:19:10.837Z,112.00
2024-05-09T05:20:17.933Z,110.17
2024-05-09T05:21:26.363Z,109.17
2024-05-09T05:22:28.486Z,110.00
2024-05-09T05:23:30.620Z,111.67
2024-05-09T05:24:32.746Z,126.33
2024-05-09T05:25:34.777Z,154.17
2024-05-09T05:26:37.967Z,168.67
2024-05-09T05:27:40.026Z,168.50
2024-05-09T05:28:42.086Z,168.00
2024-05-09T05:29:44.204Z,163.33
2024-05-09T05:30:46.443Z,157.50
2024-05-09T05:31:48.576Z,153.83
2024-05-09T05:32:50.974Z,154.00
2024-05-09T05:33:53.248Z,179.00
2024-05-09T05:34:55.404Z,200.17
2024-05-09T05:35:57.504Z,203.50
2024-05-09T05:36:59.544Z,189.33
2024-05-09T05:38:05.794Z,194.50
2024-05-09T05:39:07.891Z,193.00
2024-05-09T05:40:14.612Z,178.33
2024-05-09T05:41:19.556Z,135.50
2024-05-09T05:42:21.632Z,94.00
2024-05-09T05:43:23.745Z,70.17
2024-05-09T05:44:25.870Z,64.50
2024-05-09T05:45:27.933Z,67.83
2024-05-09T05:46:29.967Z,57.83
2024-05-09T05:47:32.111Z,55.33
2024-05-09T05:48:34.476Z,58.83
2024-05-09T05:49:36.648Z,68.00
2024-05-09T05:50:39.057Z,75.00
2024-05-09T05:51:41.185Z,82.67
2024-05-09T05:52:43.248Z,86.17
2024-05-09T05:53:45.360Z,87.83
2024-05-09T05:54:47.553Z,88.83
2024-05-09T05:55:49.681Z,89.33
2024-05-09T05:56:51.735Z,89.00
2024-05-09T05:57:54.514Z,82.33
2024-05-09T05:58:56.573Z,65.33
2024-05-09T05:59:58.623Z,65.17
2024-05-09T06:01:00.744Z,72.83
2024-05-09T06:02:03.097Z,74.50
2024-05-09T06:03:05.706Z,76.67
2024-05-09T06:04:08.066Z,86.50
2024-05-09T06:05:10.240Z,107.67
2024-05-09T06:06:12.526Z,104.00
2024-05-09T06:07:14.629Z,100.83
2024-05-09T06:08:16.795Z,97.67
2024-05-09T06:09:18.874Z,109.33
2024-05-09T06:10:25.799Z,134.67
2024-05-09T06:11:32.396Z,118.83
2024-05-09T06:12:34.558Z,109.17
2024-05-09T06:13:41.715Z,85.67
2024-05-09T06:14:43.793Z,79.17
2024-05-09T06:15:45.846Z,79.50
2024-05-09T06:16:47.975Z,86.17
2024-05-09T06:17:50.155Z,105.33
2024-05-09T06:18:52.471Z,113.50
2024-05-09T06:19:54.737Z,111.67
2024-05-09T06:20:56.890Z,120.17
2024-05-09T06:21:58.946Z,138.17
2024-05-09T06:23:01.900Z,147.33
2024-05-09T06:24:06.670Z,146.50
2024-05-09T06:25:08.847Z,132.00
2024-05-09T06:26:10.982Z,127.67
2024-05-09T06:27:13.077Z,116.00
2024-05-09T06:28:15.134Z,105.83
2024-05-09T06:29:17.226Z,109.17
2024-05-09T06:30:25.602Z,124.17
2024-05-09T06:31:38.834Z,143.33
2024-05-09T06:32:43.732Z,139.83
2024-05-09T06:33:45.976Z,137.17
2024-05-09T06:34:48.403Z,145.67
2024-05-09T06:35:53.190Z,140.67
2024-05-09T06:36:55.252Z,103.67
2024-05-09T06:37:57.323Z,80.83
2024-05-09T06:38:59.408Z,83.00
2024-05-09T06:40:01.588Z,94.33
2024-05-09T06:41:04.883Z,98.17
2024-05-09T06:42:07.389Z,86.17
2024-05-09T06:43:13.669Z,86.67
2024-05-09T06:44:15.837Z,93.83
2024-05-09T06:45:17.961Z,103.33
2024-05-09T06:46:20.048Z,111.50
2024-05-09T06:47:22.305Z,111.00
2024-05-09T06:48:24.547Z,108.33
2024-05-09T06:49:28.995Z,104.17
2024-05-09T06:50:35.863Z,103.83
2024-05-09T06:51:40.345Z,93.50
2024-05-09T06:52:46.089Z,68.67
2024-05-09T06:53:48.216Z,49.50
2024-05-09T06:54:50.259Z,39.00
2024-05-09T06:55:52.519Z,31.50
2024-05-09T06:56:54.670Z,35.00
2024-05-09T06:57:56.752Z,33.00
2024-05-09T06:58:58.846Z,31.50
2024-05-09T07:00:01.125Z,37.33
2024-05-09T07:01:03.524Z,41.33
2024-05-09T07:02:05.806Z,39.17
2024-05-09T07:03:13.414Z,34.83
2024-05-09T07:04:17.862Z,33.00
2024-05-09T07:05:20.454Z,35.67
2024-05-09T07:06:22.770Z,39.33
2024-05-09T07:07:25.119Z,41.33
2024-05-09T07:08:27.270Z,42.00
2024-05-09T07:09:29.381Z,41.00
2024-05-09T07:10:35.218Z,39.50
2024-05-09T07:11:38.407Z,36.17
2024-05-09T07:12:40.540Z,37.33
2024-05-09T07:13:44.207Z,38.00
2024-05-09T07:14:46.348Z,38.00
2024-05-09T07:15:48.456Z,37.50
2024-05-09T07:16:50.714Z,35.67
2024-05-09T07:17:53.018Z,32.50
2024-05-09T07:18:55.492Z,29.50
2024-05-09T07:19:58.955Z,27.17
2024-05-09T07:21:01.129Z,28.33
2024-05-09T07:22:03.370Z,33.67
2024-05-09T07:23:08.230Z,40.00
2024-05-09T07:24:10.362Z,41.00
2024-05-09T07:25:12.501Z,39.33
2024-05-09T07:26:16.002Z,34.00
2024-05-09T07:27:18.421Z,32.17
2024-05-09T07:28:21.608Z,32.17
2024-05-09T07:29:23.765Z,33.67
2024-05-09T07:30:30.908Z,33.67
2024-05-09T07:31:36.124Z,32.17
2024-05-09T07:32:38.478Z,29.50
2024-05-09T07:33:41.252Z,25.50
2024-05-09T07:34:43.484Z,24.00
2024-05-09T07:35:45.673Z,24.00
2024-05-09T07:36:49.526Z,25.00
2024-05-09T07:37:51.734Z,25.00
2024-05-09T07:38:55.295Z,24.33
2024-05-09T07:39:57.439Z,23.17
2024-05-09T07:40:59.641Z,23.00
2024-05-09T07:42:03.627Z,23.00
2024-05-09T07:43:07.041Z,22.67
2024-05-09T07:44:09.185Z,22.00
2024-05-09T07:45:29.631Z,22.00
2024-05-09T07:48:58.127Z,21.50
2024-05-09T07:50:35.975Z,24.83
2024-05-09T07:53:33.125Z,26.33
2024-05-09T07:53:58.437Z,28.83
2024-05-09T07:55:03.014Z,28.00
2024-05-09T07:56:05.585Z,27.50
2024-05-09T07:57:07.797Z,29.17
2024-05-09T07:58:09.968Z,33.83
2024-05-09T07:59:12.111Z,37.00
2024-05-09T08:00:17.519Z,38.17
2024-05-09T08:01:24.864Z,48.67
2024-05-09T08:02:27.555Z,61.17
2024-05-09T08:03:30.261Z,57.50
2024-05-09T08:04:32.575Z,53.00
2024-05-09T08:05:34.933Z,51.33
2024-05-09T08:06:37.206Z,49.50
2024-05-09T08:07:39.350Z,48.00
2024-05-09T08:08:41.493Z,45.17
2024-05-09T08:09:44.941Z,41.67
2024-05-09T08:10:47.160Z,41.00
2024-05-09T08:11:51.547Z,40.33
2024-05-09T08:12:53.708Z,40.00
2024-05-09T08:13:55.839Z,41.83
2024-05-09T08:14:57.957Z,52.67
2024-05-09T08:16:00.439Z,68.00
2024-05-09T08:17:03.531Z,66.17
2024-05-09T08:18:08.976Z,61.83
2024-05-09T08:19:11.250Z,59.00
2024-05-09T08:20:22.546Z,57.83
2024-05-09T08:21:29.070Z,57.00
2024-05-09T08:22:31.571Z,59.83
2024-05-09T08:23:33.742Z,61.00
2024-05-09T08:24:36.934Z,60.00
2024-05-09T08:25:39.069Z,60.17
2024-05-09T08:26:41.206Z,66.67
2024-05-09T08:27:43.410Z,69.50
2024-05-09T08:28:45.522Z,69.17
2024-05-09T08:29:47.772Z,71.83
2024-05-09T08:30:50.090Z,74.33
2024-05-09T08:31:57.689Z,81.33
2024-05-09T08:32:59.990Z,88.83
2024-05-09T08:34:02.329Z,91.00
2024-05-09T08:35:04.977Z,101.17
2024-05-09T08:36:07.141Z,117.50
2024-05-09T08:37:15.495Z,113.50
2024-05-09T08:38:22.335Z,102.00
2024-05-09T08:39:24.463Z,104.50
2024-05-09T08:40:33.881Z,100.83
2024-05-09T08:41:41.068Z,95.83
2024-05-09T08:42:51.202Z,89.33
2024-05-09T08:43:53.461Z,90.33
2024-05-09T08:44:55.597Z,100.17
2024-05-09T08:45:58.548Z,104.83
2024-05-09T08:47:02.204Z,102.17
2024-05-09T08:48:07.252Z,100.33
2024-05-09T08:49:10.229Z,100.50
2024-05-09T08:50:24.342Z,102.33
2024-05-09T08:51:34.481Z,101.83
2024-05-09T08:52:36.663Z,100.33
2024-05-09T08:53:39.062Z,100.00
2024-05-09T08:54:41.276Z,100.00
2024-05-09T08:55:45.298Z,100.00
2024-05-09T08:56:48.576Z,99.17
2024-05-09T08:57:51.502Z,100.50
2024-05-09T08:58:56.607Z,108.83
2024-05-09T09:00:03.445Z,133.17
2024-05-09T09:01:07.118Z,131.33
2024-05-09T09:02:12.657Z,132.17
2024-05-09T09:03:17.079Z,124.17
2024-05-09T09:04:20.290Z,132.33
2024-05-09T09:05:26.086Z,149.33
2024-05-09T09:06:29.040Z,151.50
2024-05-09T09:07:32.680Z,145.67
2024-05-09T09:08:37.971Z,158.50
2024-05-09T09:09:42.398Z,164.83
2024-05-09T09:10:46.570Z,168.83
2024-05-09T09:11:48.721Z,177.67
2024-05-09T09:12:57.480Z,176.50
2024-05-09T09:13:59.600Z,169.33
2024-05-09T09:15:01.789Z,173.00
2024-05-09T09:16:04.363Z,178.67
2024-05-09T09:17:16.367Z,178.83
2024-05-09T09:18:19.301Z,170.33
2024-05-09T09:19:22.381Z,167.83
2024-05-09T09:20:33.265Z,161.00
2024-05-09T09:21:38.301Z,165.67
2024-05-09T09:22:40.430Z,197.50
2024-05-09T09:23:42.624Z,211.33
2024-05-09T09:24:44.786Z,237.17
2024-05-09T09:25:47.023Z,268.33
2024-05-09T09:26:49.756Z,268.83
2024-05-09T09:27:51.897Z,247.83
2024-05-09T09:28:58.898Z,245.67
2024-05-09T09:30:01.117Z,250.33
2024-05-09T09:31:03.573Z,246.33
2024-05-09T09:32:07.448Z,233.50
2024-05-09T09:33:10.568Z,231.83
2024-05-09T09:34:13.076Z,231.33
2024-05-09T09:35:16.292Z,232.50
2024-05-09T09:36:18.575Z,232.83
2024-05-09T09:37:22.499Z,232.00
2024-05-09T09:38:29.051Z,236.33
2024-05-09T09:39:32.914Z,239.00
2024-05-09T09:40:40.466Z,244.83
2024-05-09T09:41:46.938Z,268.33
2024-05-09T09:42:49.312Z,262.33
2024-05-09T09:43:52.646Z,257.83
2024-05-09T09:45:04.218Z,272.67
2024-05-09T09:46:10.810Z,261.50
2024-05-09T09:47:15.763Z,259.00
2024-05-09T09:48:19.305Z,263.17
2024-05-09T09:49:29.493Z,266.83
2024-05-09T09:50:35.097Z,263.00
2024-05-09T09:51:42.423Z,256.33
2024-05-09T09:52:44.996Z,250.00
2024-05-09T09:53:48.312Z,250.67
2024-05-09T09:54:53.081Z,248.33
2024-05-09T09:55:55.669Z,249.83
2024-05-09T09:56:58.727Z,252.67
2024-05-09T09:58:03.083Z,264.83
2024-05-09T09:59:05.969Z,272.00
2024-05-09T10:00:12.038Z,272.50
2024-05-09T10:01:19.433Z,268.83
2024-05-09T10:02:21.958Z,274.17
2024-05-09T10:03:24.416Z,290.17
2024-05-09T10:04:28.161Z,286.00
2024-05-09T10:05:32.213Z,283.00
2024-05-09T10:06:40.061Z,280.83
2024-05-09T10:07:42.834Z,281.50
2024-05-09T10:08:46.743Z,282.00
2024-05-09T10:09:48.988Z,281.17
2024-05-09T10:10:51.252Z,277.50
2024-05-09T10:11:59.755Z,276.50
2024-05-09T10:13:06.711Z,284.83
2024-05-09T10:14:09.085Z,282.83
2024-05-09T10:15:11.198Z,278.50
2024-05-09T10:16:20.320Z,274.00
2024-05-09T10:17:22.524Z,272.83
2024-05-09T10:18:35.751Z,267.50
2024-05-09T10:19:37.979Z,244.33
2024-05-09T10:20:43.481Z,240.67
2024-05-09T10:21:46.063Z,233.00
2024-05-09T10:22:49.351Z,242.50
2024-05-09T10:24:07.599Z,245.33
2024-05-09T10:25:11.481Z,235.00
2024-05-09T10:26:13.607Z,234.50
2024-05-09T10:27:24.221Z,237.83
2024-05-09T10:28:30.760Z,232.17
2024-05-09T10:29:32.945Z,227.17
2024-05-09T10:30:36.410Z,227.33
2024-05-09T10:31:46.249Z,229.50
2024-05-09T10:32:52.470Z,216.83
2024-05-09T10:33:55.187Z,211.17
2024-05-09T10:35:05.877Z,206.83
2024-05-09T10:36:18.294Z,197.83
2024-05-09T10:37:21.156Z,198.00
2024-05-09T10:38:23.805Z,195.17
2024-05-09T10:39:26.328Z,192.17
2024-05-09T10:40:31.601Z,201.17
2024-05-09T10:41:36.884Z,206.50
2024-05-09T10:42:40.549Z,215.67
2024-05-09T10:43:42.925Z,220.17
2024-05-09T10:44:46.215Z,218.33
2024-05-09T10:45:48.627Z,204.50
2024-05-09T10:46:53.385Z,198.50
2024-05-09T10:47:55.808Z,198.67
2024-05-09T10:48:58.031Z,200.50
2024-05-09T10:50:00.595Z,221.83
2024-05-09T10:51:03.388Z,244.33
2024-05-09T10:52:07.367Z,242.67
2024-05-09T10:53:09.471Z,232.83
2024-05-09T10:54:11.688Z,225.17
2024-05-09T10:55:14.080Z,217.17
2024-05-09T10:56:17.334Z,218.33
2024-05-09T10:57:20.799Z,220.67
2024-05-09T10:58:23.261Z,219.33
2024-05-09T10:59:34.436Z,218.67
2024-05-09T11:00:37.687Z,212.83
2024-05-09T11:01:40.423Z,201.50
2024-05-09T11:02:43.235Z,204.83
2024-05-09T11:03:49.030Z,217.67
2024-05-09T11:04:51.866Z,225.67
2024-05-09T11:05:54.507Z,225.50
2024-05-09T11:06:57.144Z,224.00
2024-05-09T11:07:59.252Z,224.50
2024-05-09T11:09:01.410Z,224.33
2024-05-09T11:10:04.938Z,217.67
2024-05-09T11:11:09.390Z,210.00
2024-05-09T11:12:11.849Z,205.00
2024-05-09T11:13:14.103Z,195.17
2024-05-09T11:14:16.307Z,180.83
2024-05-09T11:15:18.598Z,182.17
2024-05-09T11:16:21.450Z,186.67
2024-05-09T11:17:23.860Z,186.67
2024-05-09T11:18:30.792Z,174.00
2024-05-09T11:19:38.692Z,167.67
2024-05-09T11:20:40.965Z,169.33
2024-05-09T11:21:50.406Z,152.83
2024-05-09T11:22:52.545Z,135.67
2024-05-09T11:23:55.998Z,122.33
2024-05-09T11:24:58.474Z,104.17
2024-05-09T11:26:00.714Z,92.50
2024-05-09T11:27:04.150Z,81.67
2024-05-09T11:28:06.437Z,70.67
2024-05-09T11:29:08.539Z,65.67
2024-05-09T11:30:24.247Z,60.17
2024-05-09T11:31:46.754Z,49.67
2024-05-09T11:32:49.053Z,45.50
2024-05-09T11:33:53.899Z,49.00
2024-05-09T11:34:56.094Z,49.50
2024-05-09T11:35:58.254Z,47.00
2024-05-09T11:37:00.505Z,41.83
2024-05-09T11:38:03.355Z,37.50
2024-05-09T11:39:06.010Z,34.17
2024-05-09T11:40:13.915Z,32.50
2024-05-09T11:41:23.343Z,37.33
2024-05-09T11:42:25.445Z,39.33
2024-05-09T11:43:27.731Z,42.00
2024-05-09T11:44:29.827Z,40.33
2024-05-09T11:45:32.414Z,31.83
2024-05-09T11:46:34.542Z,24.50
2024-05-09T11:47:38.599Z,20.00
2024-05-09T11:48:40.973Z,18.50
2024-05-09T11:49:43.180Z,19.00
2024-05-09T11:50:45.343Z,19.67
2024-05-09T11:51:47.486Z,17.67
2024-05-09T11:52:49.632Z,16.00
2024-05-09T11:53:51.746Z,13.67
2024-05-09T11:54:53.925Z,13.33
2024-05-09T11:55:57.452Z,14.67
2024-05-09T11:56:59.838Z,15.67
2024-05-09T11:58:02.537Z,17.17
2024-05-09T11:59:04.675Z,18.00
2024-05-09T12:00:11.880Z,18.67
2024-05-09T12:01:18.731Z,17.67
2024-05-09T12:02:20.933Z,15.83
2024-05-09T12:03:23.218Z,14.33
2024-05-09T12:04:25.498Z,13.17
2024-05-09T12:05:29.100Z,13.00
2024-05-09T12:06:31.353Z,13.00
2024-05-09T12:07:33.473Z,13.50
2024-05-09T12:08:35.628Z,14.00
2024-05-09T12:09:37.772Z,14.00
2024-05-09T12:10:40.103Z,13.33
2024-05-09T12:11:42.666Z,12.33
2024-05-09T12:12:44.936Z,11.83
2024-05-09T12:13:47.129Z,11.00
2024-05-09T12:14:49.256Z,10.33
2024-05-09T12:15:51.443Z,10.00
2024-05-09T12:16:53.619Z,10.00
2024-05-09T12:17:58.160Z,10.00
2024-05-09T12:19:02.142Z,10.00
2024-05-09T12:21:07.739Z,10.00
2024-05-09T12:22:10.155Z,10.00
2024-05-09T12:23:12.370Z,10.00
2024-05-09T12:24:17.709Z,10.00
2024-05-09T12:25:20.541Z,10.00
2024-05-09T12:26:22.751Z,10.00
2024-05-09T12:27:24.882Z,10.00
2024-05-09T12:28:27.029Z,10.00
2024-05-09T12:29:29.139Z,10.00
2024-05-09T12:30:36.994Z,9.67
2024-05-09T12:31:41.824Z,9.00
2024-05-09T12:32:45.029Z,9.00
2024-05-09T12:33:47.328Z,9.00
2024-05-09T12:34:49.523Z,8.83
2024-05-09T12:35:51.708Z,8.00
2024-05-09T12:36:53.996Z,8.00
2024-05-09T12:37:56.176Z,8.00
2024-05-09T12:38:58.310Z,8.00
2024-05-09T12:40:00.516Z,8.00
2024-05-09T12:41:02.681Z,8.00
2024-05-09T12:42:04.826Z,8.00
2024-05-09T12:43:07.924Z,8.00
2024-05-09T12:44:10.872Z,8.00
2024-05-09T12:45:13.025Z,8.00
2024-05-09T12:46:15.174Z,8.00
2024-05-09T12:47:17.394Z,8.00
2024-05-09T12:48:19.659Z,8.67
2024-05-09T12:49:23.251Z,9.00
2024-05-09T12:50:32.003Z,9.00
2024-05-09T12:51:36.273Z,9.00
2024-05-09T12:52:38.431Z,9.00
2024-05-09T12:53:40.558Z,9.00
2024-05-09T12:54:42.749Z,9.00
2024-05-09T12:55:53.365Z,9.00
2024-05-09T12:56:59.419Z,9.00
2024-05-09T12:58:01.597Z,9.00
2024-05-09T12:59:03.718Z,9.00
2024-05-09T13:00:09.352Z,9.00
2024-05-09T13:01:13.803Z,9.00
2024-05-09T13:02:16.135Z,9.00
2024-05-09T13:03:18.538Z,9.00
2024-05-09T13:04:20.890Z,9.00
2024-05-09T13:05:23.384Z,9.00
2024-05-09T13:06:25.592Z,9.00
2024-05-09T13:07:41.769Z,9.00
2024-05-09T13:08:43.891Z,9.00
2024-05-09T13:09:46.059Z,8.67
2024-05-09T13:10:49.101Z,8.00
2024-05-09T13:11:51.554Z,8.00
2024-05-09T13:12:54.164Z,8.00
2024-05-09T13:13:56.310Z,8.00
2024-05-09T13:14:58.459Z,8.00
2024-05-09T13:16:00.738Z,8.00
2024-05-09T13:17:03.023Z,8.00
2024-05-09T13:18:05.695Z,8.00
2024-05-09T13:19:07.805Z,8.00
2024-05-09T13:20:18.543Z,8.00
2024-05-09T13:21:25.527Z,8.00
2024-05-09T13:22:27.759Z,8.00
2024-05-09T13:23:29.818Z,8.00
2024-05-09T13:24:31.897Z,8.00
2024-05-09T13:25:33.985Z,8.00
2024-05-09T13:26:36.068Z,8.00
2024-05-09T13:27:38.140Z,8.00
2024-05-09T13:28:40.229Z,8.00